createdAt,value
2023-04-27T00:01:16.942Z,18.44
2023-04-27T00:03:46.036Z,18.26
2023-04-27T00:06:12.971Z,18.41
2023-04-27T00:08:39.732Z,18.40
2023-04-27T00:11:06.871Z,18.38
2023-04-27T00:13:33.750Z,18.28
2023-04-27T00:16:03.773Z,18.24
2023-04-27T00:18:31.393Z,18.31
2023-04-27T00:20:58.414Z,18.33
2023-04-27T00:23:25.182Z,18.32
2023-04-27T00:25:52.049Z,18.31
2023-04-27T00:28:18.935Z,18.16
2023-04-27T00:30:45.810Z,18.15
2023-04-27T00:33:12.598Z,18.28
2023-04-27T00:35:39.317Z,18.27
2023-04-27T00:38:06.039Z,18.29
2023-04-27T00:40:32.852Z,18.30
2023-04-27T00:42:59.592Z,18.30
2023-04-27T00:45:26.611Z,18.28
2023-04-27T00:47:53.594Z,18.26
2023-04-27T00:50:24.138Z,18.24
2023-04-27T00:52:51.008Z,18.18
2023-04-27T00:55:17.905Z,18.26
2023-04-27T00:57:44.643Z,18.32
2023-04-27T01:00:12.041Z,18.33
2023-04-27T01:02:39.418Z,18.37
2023-04-27T01:05:07.243Z,18.22
2023-04-27T01:07:34.050Z,18.39
2023-04-27T01:10:00.855Z,18.09
2023-04-27T01:12:27.655Z,18.40
2023-04-27T01:14:54.407Z,18.30
2023-04-27T01:17:22.120Z,18.32
2023-04-27T01:19:50.072Z,18.13
2023-04-27T01:22:17.031Z,17.81
2023-04-27T01:24:43.878Z,18.27
2023-04-27T01:27:10.591Z,18.34
2023-04-27T01:29:37.407Z,17.68
2023-04-27T01:32:04.886Z,17.95
2023-04-27T01:34:31.649Z,18.27
2023-04-27T01:36:58.624Z,18.25
2023-04-27T01:39:25.789Z,18.00
2023-04-27T01:41:53.117Z,17.97
2023-04-27T01:44:21.267Z,18.20
2023-04-27T01:46:48.260Z,18.01
2023-04-27T01:49:15.416Z,18.14
2023-04-27T01:51:42.526Z,17.46
2023-04-27T01:54:09.408Z,18.11
2023-04-27T01:56:36.118Z,18.10
2023-04-27T01:59:02.895Z,18.08
2023-04-27T02:01:31.567Z,18.09
2023-04-27T02:03:58.550Z,17.95
2023-04-27T02:06:25.414Z,17.96
2023-04-27T02:08:52.335Z,17.81
2023-04-27T02:11:19.037Z,17.87
2023-04-27T02:13:45.770Z,17.85
2023-04-27T02:16:13.217Z,17.85
2023-04-27T02:18:40.574Z,17.85
2023-04-27T02:21:10.949Z,17.33
2023-04-27T02:23:37.994Z,17.80
2023-04-27T02:26:04.803Z,17.66
2023-04-27T02:28:32.417Z,17.68
2023-04-27T02:30:59.859Z,17.61
2023-04-27T02:33:26.970Z,17.75
2023-04-27T02:35:53.698Z,17.81
2023-04-27T02:38:20.555Z,17.78
2023-04-27T02:40:47.359Z,17.71
2023-04-27T02:43:14.083Z,17.90
2023-04-27T02:45:40.903Z,17.93
2023-04-27T02:48:09.072Z,17.96
2023-04-27T02:50:41.082Z,17.93
2023-04-27T02:53:08.052Z,18.00
2023-04-27T02:55:34.830Z,18.02
2023-04-27T02:58:01.857Z,18.01
2023-04-27T03:00:28.605Z,18.05
2023-04-27T03:02:55.648Z,18.05
2023-04-27T03:05:23.168Z,17.86
2023-04-27T03:07:49.963Z,18.03
2023-04-27T03:10:16.753Z,17.83
2023-04-27T03:12:43.622Z,18.09
2023-04-27T03:15:10.637Z,18.03
2023-04-27T03:17:37.441Z,18.05
2023-04-27T03:20:08.818Z,18.10
2023-04-27T03:22:36.610Z,18.09
2023-04-27T03:25:03.847Z,17.86
2023-04-27T03:27:30.906Z,18.08
2023-04-27T03:29:57.732Z,18.09
2023-04-27T03:32:24.611Z,17.95
2023-04-27T03:34:54.972Z,17.92
2023-04-27T03:37:21.825Z,18.10
2023-04-27T03:39:48.553Z,17.98
2023-04-27T03:42:15.395Z,17.98
2023-04-27T03:44:42.248Z,18.06
2023-04-27T03:47:09.878Z,18.06
2023-04-27T03:49:36.679Z,18.03
2023-04-27T03:52:03.884Z,17.96
2023-04-27T03:54:33.728Z,18.02
2023-04-27T03:57:02.413Z,18.00
2023-04-27T03:59:30.379Z,17.91
2023-04-27T04:01:59.543Z,18.00
2023-04-27T04:04:28.130Z,17.98
2023-04-27T04:06:55.135Z,17.99
2023-04-27T04:09:23.816Z,17.82
2023-04-27T04:11:52.281Z,17.99
2023-04-27T04:14:19.188Z,18.00
2023-04-27T04:16:47.845Z,18.00
2023-04-27T04:19:17.272Z,18.01
2023-04-27T04:21:44.189Z,18.00
2023-04-27T04:24:11.308Z,17.99
2023-04-27T04:26:39.604Z,17.98
2023-04-27T04:29:11.215Z,17.83
2023-04-27T04:31:38.397Z,17.79
2023-04-27T04:34:05.248Z,17.97
2023-04-27T04:36:32.340Z,17.96
2023-04-27T04:38:59.362Z,17.96
2023-04-27T04:41:26.191Z,17.74
2023-04-27T04:43:53.068Z,17.95
2023-04-27T04:46:20.159Z,17.89
2023-04-27T04:48:47.126Z,17.93
2023-04-27T04:51:14.013Z,17.73
2023-04-27T04:53:40.971Z,17.89
2023-04-27T04:56:14.046Z,17.83
2023-04-27T04:58:40.976Z,17.80
2023-04-27T05:01:07.954Z,17.92
2023-04-27T05:03:35.090Z,17.83
2023-04-27T05:06:02.176Z,17.88
2023-04-27T05:08:28.917Z,17.68
2023-04-27T05:10:55.649Z,17.89
2023-04-27T05:13:22.779Z,17.86
2023-04-27T05:15:49.737Z,17.58
2023-04-27T05:18:16.593Z,17.69
2023-04-27T05:20:43.401Z,17.91
2023-04-27T05:23:10.260Z,17.68
2023-04-27T05:25:41.733Z,17.84
2023-04-27T05:28:09.843Z,17.64
2023-04-27T05:30:36.927Z,17.80
2023-04-27T05:33:04.468Z,17.92
2023-04-27T05:35:31.814Z,17.92
2023-04-27T05:37:58.631Z,17.64
2023-04-27T05:40:25.581Z,17.26
2023-04-27T05:42:52.412Z,17.88
2023-04-27T05:45:19.192Z,17.86
2023-04-27T05:47:46.055Z,17.84
2023-04-27T05:50:13.024Z,17.83
2023-04-27T05:52:39.827Z,17.79
2023-04-27T05:55:08.219Z,17.77
2023-04-27T05:57:35.085Z,17.77
2023-04-27T06:00:02.201Z,17.76
2023-04-27T06:02:29.226Z,17.75
2023-04-27T06:04:56.303Z,17.74
2023-04-27T06:07:23.125Z,17.74
2023-04-27T06:09:49.994Z,17.75
2023-04-27T06:12:17.097Z,17.56
2023-04-27T06:14:43.993Z,17.74
2023-04-27T06:17:10.850Z,17.72
2023-04-27T06:19:37.671Z,17.67
2023-04-27T06:22:04.512Z,17.80
2023-04-27T06:24:31.414Z,17.76
2023-04-27T06:26:58.416Z,17.85
2023-04-27T06:29:25.255Z,17.99
2023-04-27T06:31:52.046Z,18.08
2023-04-27T06:34:19.073Z,17.95
2023-04-27T06:36:45.995Z,18.18
2023-04-27T06:39:13.121Z,18.09
2023-04-27T06:41:40.129Z,18.22
2023-04-27T06:44:07.368Z,18.13
2023-04-27T06:46:34.348Z,18.20
2023-04-27T06:49:01.890Z,18.22
2023-04-27T06:51:28.640Z,18.21
2023-04-27T06:53:57.395Z,18.23
2023-04-27T06:56:24.202Z,18.24
2023-04-27T06:58:51.166Z,18.26
2023-04-27T07:01:17.923Z,18.30
2023-04-27T07:03:44.890Z,18.34
2023-04-27T07:06:11.815Z,18.27
2023-04-27T07:08:38.565Z,18.49
2023-04-27T07:11:05.553Z,18.58
2023-04-27T07:13:32.275Z,18.59
2023-04-27T07:15:59.139Z,18.52
2023-04-27T07:18:28.288Z,18.81
2023-04-27T07:20:55.930Z,18.83
2023-04-27T07:23:22.673Z,18.73
2023-04-27T07:25:49.824Z,18.80
2023-04-27T07:28:16.728Z,18.70
2023-04-27T07:30:43.522Z,18.91
2023-04-27T07:33:10.550Z,19.09
2023-04-27T07:35:37.461Z,19.36
2023-04-27T07:38:04.267Z,19.61
2023-04-27T07:40:33.026Z,19.85
2023-04-27T07:43:00.042Z,20.08
2023-04-27T07:45:32.259Z,20.43
2023-04-27T07:48:02.548Z,20.47
2023-04-27T07:50:30.148Z,20.76
2023-04-27T07:52:57.258Z,21.02
2023-04-27T07:55:24.877Z,21.32
2023-04-27T07:57:54.757Z,21.81
2023-04-27T08:00:22.167Z,22.19
2023-04-27T08:02:49.612Z,22.39
2023-04-27T08:05:17.003Z,22.74
2023-04-27T08:07:45.195Z,22.98
2023-04-27T08:10:14.127Z,23.23
2023-04-27T08:12:41.150Z,23.44
2023-04-27T08:15:08.751Z,23.65
2023-04-27T08:17:37.458Z,23.87
2023-04-27T08:20:04.555Z,24.07
2023-04-27T08:22:31.631Z,24.15
2023-04-27T08:24:58.565Z,24.35
2023-04-27T08:27:25.427Z,24.48
2023-04-27T08:29:52.678Z,24.69
2023-04-27T08:32:19.485Z,24.87
2023-04-27T08:34:46.761Z,25.01
2023-04-27T08:37:13.650Z,25.34
2023-04-27T08:39:40.914Z,25.14
2023-04-27T08:42:13.894Z,25.61
2023-04-27T08:44:41.529Z,25.59
2023-04-27T08:47:09.315Z,25.88
2023-04-27T08:49:38.647Z,26.07
2023-04-27T08:52:12.407Z,26.29
2023-04-27T08:54:39.276Z,26.53
2023-04-27T08:57:24.344Z,26.70
2023-04-27T09:00:01.110Z,26.85
2023-04-27T09:02:32.184Z,26.85
2023-04-27T09:04:59.458Z,27.20
2023-04-27T09:07:28.528Z,27.36
2023-04-27T09:10:04.699Z,27.38
2023-04-27T09:12:31.523Z,27.46
2023-04-27T09:14:59.642Z,27.45
2023-04-27T09:17:30.754Z,27.46
2023-04-27T09:20:23.783Z,27.41
2023-04-27T09:22:53.154Z,27.26
2023-04-27T09:25:32.614Z,27.24
2023-04-27T09:28:00.260Z,26.91
2023-04-27T09:30:27.837Z,26.58
2023-04-27T09:32:54.667Z,26.44
2023-04-27T09:35:26.375Z,26.35
2023-04-27T09:37:53.589Z,26.32
2023-04-27T09:40:23.696Z,26.53
2023-04-27T09:42:50.832Z,26.67
2023-04-27T09:45:17.635Z,26.81
2023-04-27T09:47:44.637Z,26.90
2023-04-27T09:50:12.998Z,27.34
2023-04-27T09:52:39.807Z,27.62
2023-04-27T09:55:10.522Z,27.82
2023-04-27T09:57:56.211Z,28.25
2023-04-27T10:00:56.911Z,28.47
2023-04-27T10:04:01.109Z,28.75
2023-04-27T10:06:49.214Z,29.10
2023-04-27T10:09:17.592Z,29.33
2023-04-27T10:11:44.780Z,29.36
2023-04-27T10:14:18.699Z,29.90
2023-04-27T10:16:48.576Z,30.24
2023-04-27T10:19:15.754Z,30.50
2023-04-27T10:21:52.861Z,30.69
2023-04-27T10:24:19.643Z,30.91
2023-04-27T10:26:47.308Z,31.15
2023-04-27T10:29:16.655Z,31.27
2023-04-27T10:31:44.270Z,31.50
2023-04-27T10:34:11.875Z,31.51
2023-04-27T10:36:39.506Z,31.75
2023-04-27T10:39:20.180Z,31.77
2023-04-27T10:41:53.842Z,31.97
2023-04-27T10:44:25.910Z,32.08
2023-04-27T10:46:53.463Z,32.02
2023-04-27T10:49:20.502Z,32.04
2023-04-27T10:51:48.905Z,32.23
2023-04-27T10:54:15.630Z,32.64
2023-04-27T10:56:43.159Z,33.08
2023-04-27T10:59:09.916Z,33.59
2023-04-27T11:01:37.236Z,33.88
2023-04-27T11:04:04.666Z,33.96
2023-04-27T11:06:34.325Z,33.87
2023-04-27T11:09:01.639Z,33.82
2023-04-27T11:11:28.583Z,33.99
2023-04-27T11:13:56.303Z,33.87
2023-04-27T11:16:23.404Z,33.52
2023-04-27T11:18:50.352Z,33.42
2023-04-27T11:21:18.605Z,33.40
2023-04-27T11:23:45.596Z,33.39
2023-04-27T11:26:19.630Z,33.37
2023-04-27T11:28:57.296Z,33.53
2023-04-27T11:31:24.261Z,33.76
2023-04-27T11:33:52.146Z,33.92
2023-04-27T11:36:19.623Z,33.97
2023-04-27T11:38:46.586Z,34.18
2023-04-27T11:41:13.536Z,34.32
2023-04-27T11:43:46.386Z,34.40
2023-04-27T11:46:13.478Z,34.51
2023-04-27T11:48:40.720Z,34.66
2023-04-27T11:51:10.835Z,34.83
2023-04-27T11:53:38.905Z,34.94
2023-04-27T11:56:07.907Z,35.01
2023-04-27T11:58:36.272Z,34.95
2023-04-27T12:01:07.116Z,35.27
2023-04-27T12:03:35.591Z,35.38
2023-04-27T12:08:32.281Z,35.57
2023-04-27T12:10:59.076Z,35.69
2023-04-27T12:13:26.127Z,35.95
2023-04-27T12:15:52.888Z,36.20
2023-04-27T12:18:19.695Z,36.21
2023-04-27T12:20:47.237Z,36.08
2023-04-27T12:23:14.152Z,35.79
2023-04-27T12:25:41.294Z,35.95
2023-04-27T12:28:08.164Z,36.34
2023-04-27T12:30:35.130Z,36.73
2023-04-27T12:33:02.609Z,37.12
2023-04-27T12:35:32.297Z,37.54
2023-04-27T12:37:59.183Z,37.96
2023-04-27T12:40:26.135Z,38.36
2023-04-27T12:42:52.970Z,38.51
2023-04-27T12:45:19.844Z,38.17
2023-04-27T12:48:01.221Z,37.37
2023-04-27T12:50:29.804Z,36.75
2023-04-27T12:52:59.304Z,36.48
2023-04-27T12:55:33.679Z,36.74
2023-04-27T12:58:01.133Z,37.19
2023-04-27T13:00:29.519Z,37.45
2023-04-27T13:02:56.959Z,37.47
2023-04-27T13:05:23.985Z,36.75
2023-04-27T13:07:50.796Z,35.64
2023-04-27T13:10:17.684Z,34.31
2023-04-27T13:12:44.518Z,33.39
2023-04-27T13:15:11.490Z,32.36
2023-04-27T13:17:38.306Z,31.55
2023-04-27T13:20:06.756Z,30.89
2023-04-27T13:22:33.533Z,30.04
2023-04-27T13:25:00.527Z,29.76
2023-04-27T13:27:28.755Z,29.29
2023-04-27T13:29:56.191Z,29.10
2023-04-27T13:32:23.106Z,28.92
2023-04-27T13:34:50.134Z,28.81
2023-04-27T13:37:17.417Z,28.48
2023-04-27T13:39:44.241Z,28.65
2023-04-27T13:42:11.791Z,28.51
2023-04-27T13:44:38.746Z,28.39
2023-04-27T13:47:06.747Z,28.48
2023-04-27T13:49:33.899Z,28.68
2023-04-27T13:52:00.930Z,28.68
2023-04-27T13:54:28.260Z,28.58
2023-04-27T13:56:55.131Z,28.50
2023-04-27T13:59:21.978Z,28.47
2023-04-27T14:01:48.895Z,28.45
2023-04-27T14:04:15.909Z,28.28
2023-04-27T14:06:42.787Z,28.29
2023-04-27T14:09:09.531Z,28.19
2023-04-27T14:11:48.510Z,27.97
2023-04-27T14:14:19.621Z,28.08
2023-04-27T14:16:46.772Z,28.00
2023-04-27T14:19:16.269Z,27.88
2023-04-27T14:21:43.183Z,27.74
2023-04-27T14:24:10.232Z,27.63
2023-04-27T14:26:36.942Z,27.35
2023-04-27T14:29:03.683Z,27.41
2023-04-27T14:31:30.821Z,27.27
2023-04-27T14:33:57.823Z,27.15
2023-04-27T14:36:27.730Z,27.05
2023-04-27T14:38:54.621Z,26.97
2023-04-27T14:41:21.527Z,26.80
2023-04-27T14:43:48.962Z,26.81
2023-04-27T14:46:20.741Z,26.40
2023-04-27T14:48:48.584Z,26.65
2023-04-27T14:51:15.713Z,26.60
2023-04-27T14:53:42.998Z,26.30
2023-04-27T14:56:09.824Z,26.48
2023-04-27T14:58:36.543Z,26.43
2023-04-27T15:01:04.588Z,26.39
2023-04-27T15:03:32.891Z,26.12
2023-04-27T15:06:00.518Z,26.32
2023-04-27T15:08:27.550Z,26.11
2023-04-27T15:10:59.345Z,26.22
2023-04-27T15:13:26.893Z,26.18
2023-04-27T15:15:55.496Z,25.92
2023-04-27T15:18:22.662Z,25.82
2023-04-27T15:20:55.917Z,26.08
2023-04-27T15:23:23.260Z,25.98
2023-04-27T15:25:50.560Z,25.90
2023-04-27T15:28:17.893Z,25.80
2023-04-27T15:30:44.831Z,25.99
2023-04-27T15:33:12.093Z,25.94
2023-04-27T15:35:40.473Z,25.95
2023-04-27T15:38:08.199Z,25.73
2023-04-27T15:40:35.133Z,25.88
2023-04-27T15:43:02.006Z,25.86
2023-04-27T15:45:32.021Z,25.63
2023-04-27T15:47:58.938Z,25.63
2023-04-27T15:50:26.449Z,25.75
2023-04-27T15:52:54.008Z,25.72
2023-04-27T15:55:21.216Z,25.33
2023-04-27T15:57:48.140Z,25.42
2023-04-27T16:00:16.960Z,25.51
2023-04-27T16:02:43.977Z,25.53
2023-04-27T16:05:11.211Z,25.53
2023-04-27T16:07:39.835Z,25.49
2023-04-27T16:10:07.577Z,25.46
2023-04-27T16:12:34.648Z,25.46
2023-04-27T16:15:01.622Z,25.43
2023-04-27T16:17:29.250Z,25.40
2023-04-27T16:19:56.256Z,25.38
2023-04-27T16:22:23.014Z,25.34
2023-04-27T16:24:49.795Z,25.31
2023-04-27T16:27:20.938Z,25.30
2023-04-27T16:29:47.672Z,25.03
2023-04-27T16:32:14.581Z,25.25
2023-04-27T16:34:41.730Z,25.25
2023-04-27T16:37:08.485Z,25.22
2023-04-27T16:39:35.886Z,25.22
2023-04-27T16:42:03.334Z,25.18
2023-04-27T16:44:30.263Z,25.01
2023-04-27T16:46:57.128Z,25.05
2023-04-27T16:49:23.985Z,25.18
2023-04-27T16:51:51.404Z,25.20
2023-04-27T16:54:18.275Z,25.21
2023-04-27T16:56:45.967Z,25.24
2023-04-27T16:59:12.904Z,25.17
2023-04-27T17:01:40.532Z,25.29
2023-04-27T17:04:07.569Z,25.34
2023-04-27T17:06:35.011Z,25.37
2023-04-27T17:09:01.786Z,25.26
2023-04-27T17:11:28.590Z,25.40
2023-04-27T17:13:55.697Z,25.39
2023-04-27T17:16:23.510Z,25.37
2023-04-27T17:18:50.580Z,25.39
2023-04-27T17:21:17.597Z,25.37
2023-04-27T17:23:46.706Z,25.34
2023-04-27T17:26:16.030Z,25.30
2023-04-27T17:28:43.050Z,25.26
2023-04-27T17:31:09.845Z,25.27
2023-04-27T17:33:36.709Z,25.23
2023-04-27T17:36:03.940Z,25.20
2023-04-27T17:38:30.755Z,25.17
2023-04-27T17:40:57.612Z,25.14
2023-04-27T17:43:24.535Z,25.11
2023-04-27T17:45:51.283Z,25.06
2023-04-27T17:48:18.422Z,24.75
2023-04-27T17:50:45.295Z,24.75
2023-04-27T17:53:12.947Z,24.94
2023-04-27T17:55:39.911Z,24.88
2023-04-27T17:58:06.794Z,24.83
2023-04-27T18:00:33.650Z,24.78
2023-04-27T18:03:00.715Z,24.74
2023-04-27T18:05:28.824Z,24.68
2023-04-27T18:07:55.581Z,24.64
2023-04-27T18:10:22.344Z,24.59
2023-04-27T18:12:49.146Z,24.55
2023-04-27T18:15:16.035Z,24.50
2023-04-27T18:17:42.816Z,24.43
2023-04-27T18:20:10.721Z,24.43
2023-04-27T18:22:40.777Z,24.38
2023-04-27T18:25:09.327Z,24.31
2023-04-27T18:27:37.655Z,24.29
2023-04-27T18:30:08.693Z,24.26
2023-04-27T18:32:35.727Z,24.17
2023-04-27T18:35:03.064Z,24.18
2023-04-27T18:37:29.894Z,24.13
2023-04-27T18:39:56.725Z,24.10
2023-04-27T18:42:23.718Z,24.02
2023-04-27T18:44:54.750Z,24.00
2023-04-27T18:47:21.985Z,23.95
2023-04-27T18:49:48.990Z,23.88
2023-04-27T18:52:15.767Z,23.80
2023-04-27T18:54:42.730Z,23.74
2023-04-27T18:57:09.483Z,23.66
2023-04-27T18:59:38.843Z,23.57
2023-04-27T19:02:06.877Z,23.50
2023-04-27T19:04:34.159Z,23.30
2023-04-27T19:07:01.553Z,23.37
2023-04-27T19:09:28.508Z,23.31
2023-04-27T19:12:02.797Z,23.25
2023-04-27T19:14:31.352Z,23.16
2023-04-27T19:16:58.122Z,23.02
2023-04-27T19:19:26.116Z,23.02
2023-04-27T19:21:53.158Z,22.93
2023-04-27T19:24:20.001Z,22.86
2023-04-27T19:26:47.701Z,22.33
2023-04-27T19:29:14.929Z,22.74
2023-04-27T19:31:42.023Z,22.53
2023-04-27T19:34:08.789Z,22.60
2023-04-27T19:36:35.682Z,22.23
2023-04-27T19:39:02.424Z,22.11
2023-04-27T19:41:29.275Z,22.42
2023-04-27T19:43:56.075Z,22.35
2023-04-27T19:46:23.058Z,22.28
2023-04-27T19:48:50.161Z,21.91
2023-04-27T19:51:17.175Z,22.09
2023-04-27T19:53:44.100Z,22.09
2023-04-27T19:56:10.936Z,21.99
2023-04-27T19:58:37.737Z,21.70
2023-04-27T20:01:04.634Z,21.83
2023-04-27T20:03:31.795Z,21.71
2023-04-27T20:05:59.251Z,21.67
2023-04-27T20:08:26.386Z,21.47
2023-04-27T20:10:54.256Z,21.52
2023-04-27T20:13:21.180Z,21.48
2023-04-27T20:15:48.182Z,21.45
2023-04-27T20:18:15.030Z,21.42
2023-04-27T20:20:42.181Z,21.31
2023-04-27T20:23:09.094Z,21.32
2023-04-27T20:25:36.445Z,21.21
2023-04-27T20:28:03.193Z,21.17
2023-04-27T20:30:30.284Z,21.18
2023-04-27T20:32:57.220Z,21.19
2023-04-27T20:35:24.352Z,21.16
2023-04-27T20:37:52.178Z,21.12
2023-04-27T20:40:19.185Z,20.92
2023-04-27T20:42:46.244Z,20.92
2023-04-27T20:45:13.612Z,21.00
2023-04-27T20:47:40.959Z,20.88
2023-04-27T20:50:08.043Z,20.90
2023-04-27T20:52:35.185Z,20.89
2023-04-27T20:55:03.512Z,20.87
2023-04-27T20:57:30.736Z,20.56
2023-04-27T20:59:57.568Z,20.78
2023-04-27T21:02:24.355Z,20.69
2023-04-27T21:04:51.946Z,20.45
2023-04-27T21:07:18.934Z,20.63
2023-04-27T21:09:45.833Z,20.48
2023-04-27T21:12:14.775Z,20.30
2023-04-27T21:14:41.632Z,19.88
2023-04-27T21:17:08.490Z,20.50
2023-04-27T21:19:35.351Z,20.47
2023-04-27T21:22:02.246Z,20.40
2023-04-27T21:24:28.948Z,20.41
2023-04-27T21:26:55.914Z,20.38
2023-04-27T21:29:22.880Z,20.34
2023-04-27T21:31:49.612Z,20.17
2023-04-27T21:34:17.242Z,20.24
2023-04-27T21:36:44.276Z,20.21
2023-04-27T21:39:12.102Z,20.26
2023-04-27T21:41:39.941Z,20.24
2023-04-27T21:44:07.175Z,20.08
2023-04-27T21:46:34.047Z,19.54
2023-04-27T21:49:01.102Z,20.13
2023-04-27T21:51:28.199Z,20.10
2023-04-27T21:53:55.222Z,19.93
2023-04-27T21:56:22.550Z,20.08
2023-04-27T21:58:49.438Z,19.92
2023-04-27T22:01:16.218Z,20.08
2023-04-27T22:03:43.086Z,20.06
2023-04-27T22:06:10.108Z,19.63
2023-04-27T22:08:36.925Z,20.01
2023-04-27T22:11:03.954Z,19.79
2023-04-27T22:13:30.738Z,19.82
2023-04-27T22:15:57.809Z,19.60
2023-04-27T22:18:24.813Z,19.82
2023-04-27T22:20:51.823Z,19.53
2023-04-27T22:23:18.639Z,19.72
2023-04-27T22:25:45.845Z,19.75
2023-04-27T22:28:12.602Z,19.69
2023-04-27T22:30:40.811Z,19.37
2023-04-27T22:33:07.752Z,19.57
2023-04-27T22:35:34.691Z,19.58
2023-04-27T22:38:01.440Z,19.59
2023-04-27T22:40:28.433Z,19.58
2023-04-27T22:42:55.471Z,19.29
2023-04-27T22:45:22.975Z,19.41
2023-04-27T22:47:49.927Z,19.48
2023-04-27T22:50:17.163Z,19.48
2023-04-27T22:52:44.068Z,19.50
2023-04-27T22:55:11.557Z,19.52
2023-04-27T22:57:38.871Z,19.51
2023-04-27T23:00:06.226Z,19.42
2023-04-27T23:02:33.148Z,19.25
2023-04-27T23:05:00.219Z,19.43
2023-04-27T23:07:27.013Z,19.54
2023-04-27T23:09:55.194Z,19.39
2023-04-27T23:12:22.503Z,19.51
2023-04-27T23:14:49.317Z,19.47
2023-04-27T23:17:16.270Z,19.44
2023-04-27T23:19:42.975Z,19.41
2023-04-27T23:22:09.718Z,19.38
2023-04-27T23:24:36.543Z,19.33
2023-04-27T23:27:03.944Z,19.21
2023-04-27T23:29:30.952Z,19.18
2023-04-27T23:32:04.692Z,19.00
2023-04-27T23:34:34.341Z,19.21
2023-04-27T23:37:01.200Z,18.87
2023-04-27T23:39:28.613Z,19.14
2023-04-27T23:41:55.407Z,18.82
2023-04-27T23:44:22.257Z,18.90
2023-04-27T23:46:49.091Z,19.04
2023-04-27T23:49:16.150Z,19.01
2023-04-27T23:51:42.889Z,19.00
2023-04-27T23:54:09.885Z,18.98
2023-04-27T23:56:36.907Z,18.97
2023-04-27T23:59:03.705Z,18.80
